No se requiere un especial cuidado respecto a la situación meteorológica.   -   No hay avisos

Informes METAR

 

LEZL - Sevilla, Spain
Distancia de la estación: ENE 8km
Actualización: 24/02/2018 00:30
Despejado
Despejado
 Viento de calm
Viento: Calma
Temperatura: 6°C
Rocío: -3°C
Humedad: 53%
Barómetro: 1004 hPa
Resumen: Despejado
Visibilidad: mayor de 10 km
2018/02/23 23:30 LEZL 232330Z 00000KT CAVOK 06/M03 Q1004 NOSIG
LEMO - Morón, Spain
Distancia de la estación: SE 43km
Actualización: 24/02/2018 01:00
Despejado
Despejado
 Viento de SE
Viento: SE 7 km/h
Temperatura: 4°C
Sensación térmica: 2°C
Rocío: 1°C
Humedad: 81%
Barómetro: 1004 hPa
Resumen: Despejado
Visibilidad: mayor de 10 km
2018/02/24 00:00 LEMO 240000Z 14004KT CAVOK 04/01 Q1004 NOSIG
LEJR - Jeréz, Spain
Distancia de la estación: S 71km
Actualización: 24/02/2018 01:00
Despejado
Despejado
 Viento de NNE
Viento: NNE 7 km/h
Temperatura: 5°C
Sensación térmica: 3°C
Rocío: 3°C
Humedad: 87%
Barómetro: 1004 hPa
Nubes: Despejado
Visibilidad: 10 km
2018/02/24 00:00 LEJR 240000Z AUTO 03004KT 9999 NCD 05/03 Q1004
 
LERT - Rota, Spain
Distancia de la estación: SSO 89km
Actualización: 24/02/2018 01:00
Despejado
Despejado
 Viento de SE
Viento: SE 13 km/h
Temperatura: 12°C
Rocío: 8°C
Humedad: 77%
Barómetro: 1004 hPa
Resumen: Despejado
Visibilidad: mayor de 10 km
2018/02/24 00:00 LERT 240000Z 14007KT CAVOK 12/08 Q1004 NOSIG
LEMG - Málaga, Spain
Distancia de la estación: ESE 157km
Actualización: 24/02/2018 01:00
Muy nuboso
Muy nuboso
 Viento de E
Viento: E 20 km/h
Temperatura: 13°C
Rocío: 7°C
Humedad: 67%
Barómetro: 1006 hPa
Nubes: Muy nuboso
Visibilidad: 10 km
Detalles de las nubes: Poco nuboso 610 m
Parcialmente nuboso 1067 m
Muy nuboso 1524 m
2018/02/24 00:00 LEMG 240000Z 10011KT 9999 FEW020 SCT035 BKN050 13/07 Q1006 NOSIG
LEBA - Córdoba, Spain
Distancia de la estación: ENE 115km
Actualización: 24/02/2018 01:00
Despejado
Despejado
 Viento de variable
Viento: variable 2 km/h
Temperatura: 2°C
Rocío: -6°C
Humedad: 56%
Barómetro: 1005 hPa
Nubes: Despejado
Visibilidad: 10 km
2018/02/24 00:00 LEBA 240000Z AUTO VRB01KT 9999 NCD 02/M06 Q1005
 
LEGR - Granada, Spain
Distancia de la estación: E 198km
Actualización: 24/02/2018 01:00
Despejado
Despejado
 Viento de calm
Viento: Calma
Temperatura: 2°C
Rocío: 0°C
Humedad: 87%
Barómetro: 1005 hPa
Nubes: Despejado
Visibilidad: 10 km
2018/02/24 00:00 LEGR 240000Z AUTO 00000KT 9999 NCD 02/M00 Q1005
LEAM - Almería, Spain
Distancia de la estación: E 326km
Actualización: 24/02/2018 01:00
Muy nuboso
Muy nuboso
 Viento de NNE
Viento: NNE 11 km/h
Temperatura: 10°C
Sensación térmica: 8°C
Rocío: 3°C
Humedad: 62%
Barómetro: 1006 hPa
Nubes: Muy nuboso
Visibilidad: 10 km
Detalles de las nubes: Muy nuboso 1463 m
2018/02/24 00:00 LEAM 240000Z AUTO 03006KT 9999 BKN048 10/03 Q1006
LEMD - Madrid/Barajas, Spain
Distancia de la estación: NNE 402km
Actualización: 24/02/2018 01:00
Despejado
Despejado
 Viento de N
Viento: N 7 km/h
Temperatura: -1°C
Sensación térmica: -4°C
Rocío: -8°C
Humedad: 59%
Barómetro: 1005 hPa
Resumen: Despejado
Visibilidad: mayor de 10 km
2018/02/24 00:00 LEMD 240000Z 35004KT CAVOK M01/M08 Q1005 NOSIG
 
LEVD - Valladolid, Spain
Distancia de la estación: N 492km
Actualización: 23/02/2018 22:00
NOT Current
Despejado
Despejado
 Viento de N
Viento: N 9 km/h
Temperatura: -2°C
Sensación térmica: -6°C
Rocío: -10°C
Humedad: 55%
Barómetro: 1005 hPa
Resumen: Despejado
Visibilidad: mayor de 10 km
2018/02/23 21:00 LEVD 232100Z 35005KT CAVOK M02/M10 Q1005
LEBL - Barcelona, Spain
Distancia de la estación: NE 816km
Actualización: 24/02/2018 01:00
Poco nuboso
Poco nuboso
 Viento de NO
Viento: NO 13 km/h
Temperatura: 5°C
Sensación térmica: 2°C
Rocío: 1°C
Humedad: 76%
Barómetro: 1007 hPa
Nubes: Poco nuboso
Visibilidad: 10 km
Detalles de las nubes: Poco nuboso 671 m
2018/02/24 00:00 LEBL 240000Z 32007KT 9999 FEW022 05/01 Q1007 NOSIG
LEVC - Valencia, Spain
Distancia de la estación: ENE 535km
Actualización: 24/02/2018 01:00
Poco nuboso
Poco nuboso
 Viento de variable
Viento: variable 4 km/h
Temperatura: 4°C
Rocío: 0°C
Humedad: 75%
Barómetro: 1007 hPa
Nubes: Poco nuboso
Visibilidad: 10 km
Detalles de las nubes: Poco nuboso 914 m
2018/02/24 00:00 LEVC 240000Z VRB02KT 9999 FEW030 04/00 Q1007 NOSIG